createdAt,value
2018-10-01T00:00:10.965Z,0.00
2018-10-01T00:01:10.751Z,0.00
2018-10-01T00:02:10.729Z,0.00
2018-10-01T00:03:10.685Z,0.00
2018-10-01T00:04:10.650Z,0.00
2018-10-01T00:05:10.670Z,0.00
2018-10-01T00:06:11.412Z,0.00
2018-10-01T00:07:10.560Z,0.00
2018-10-01T00:08:10.526Z,0.00
2018-10-01T00:09:11.411Z,0.00
2018-10-01T00:10:10.967Z,0.00
2018-10-01T00:11:11.411Z,0.00
2018-10-01T00:12:10.446Z,0.00
2018-10-01T00:13:10.415Z,0.00
2018-10-01T00:14:10.337Z,0.00
2018-10-01T00:15:10.306Z,0.00
2018-10-01T00:16:10.272Z,0.00
2018-10-01T00:17:10.298Z,0.00
2018-10-01T00:18:10.245Z,0.00
2018-10-01T00:19:10.915Z,0.00
2018-10-01T00:20:10.147Z,0.00
2018-10-01T00:21:10.114Z,0.00
2018-10-01T00:22:10.137Z,0.00
2018-10-01T00:23:10.051Z,0.00
2018-10-01T00:24:11.023Z,0.00
2018-10-01T00:25:10.924Z,0.00
2018-10-01T00:26:09.959Z,0.00
2018-10-01T00:27:10.469Z,0.00
2018-10-01T00:28:09.938Z,0.00
2018-10-01T00:29:10.418Z,0.00
2018-10-01T00:30:09.837Z,0.00
2018-10-01T00:31:10.416Z,0.00
2018-10-01T00:32:09.831Z,0.00
2018-10-01T00:33:10.414Z,0.00
2018-10-01T00:34:10.417Z,0.00
2018-10-01T00:35:10.418Z,0.00
2018-10-01T00:36:09.641Z,0.00
2018-10-01T00:37:09.662Z,0.00
2018-10-01T00:38:09.573Z,0.00
2018-10-01T00:39:10.413Z,0.00
2018-10-01T00:40:10.430Z,0.00
2018-10-01T00:41:10.430Z,0.00
2018-10-01T00:42:09.490Z,0.00
2018-10-01T00:43:09.919Z,0.00
2018-10-01T00:44:09.386Z,0.00
2018-10-01T00:45:09.349Z,0.00
2018-10-01T00:46:09.317Z,0.00
2018-10-01T00:47:09.331Z,0.00
2018-10-01T00:48:09.923Z,0.00
2018-10-01T00:49:09.221Z,0.00
2018-10-01T00:50:09.470Z,0.00
2018-10-01T00:51:09.918Z,0.00
2018-10-01T00:52:09.169Z,0.00
2018-10-01T00:53:09.918Z,0.00
2018-10-01T00:54:09.922Z,0.00
2018-10-01T00:55:09.477Z,0.00
2018-10-01T00:56:09.930Z,0.00
2018-10-01T00:57:09.478Z,0.00
2018-10-01T00:58:09.916Z,0.00
2018-10-01T00:59:09.416Z,0.00
2018-10-01T01:00:08.876Z,0.00
2018-10-01T01:01:09.824Z,0.00
2018-10-01T01:02:08.863Z,0.00
2018-10-01T01:03:09.421Z,0.00
2018-10-01T01:04:08.743Z,0.00
2018-10-01T01:05:08.709Z,0.00
2018-10-01T01:06:09.423Z,0.00
2018-10-01T01:07:08.980Z,0.00
2018-10-01T01:08:08.658Z,0.00
2018-10-01T01:09:08.586Z,0.00
2018-10-01T01:10:09.419Z,0.00
2018-10-01T01:11:09.417Z,0.00
2018-10-01T01:12:08.972Z,0.00
2018-10-01T01:13:08.453Z,0.00
2018-10-01T01:14:09.416Z,0.00
2018-10-01T01:15:08.918Z,0.00
2018-10-01T01:16:08.361Z,0.00
2018-10-01T01:17:08.372Z,0.00
2018-10-01T01:18:08.920Z,0.00
2018-10-01T01:19:08.918Z,0.00
2018-10-01T01:20:08.237Z,0.00
2018-10-01T01:21:08.204Z,0.00
2018-10-01T01:22:08.479Z,0.00
2018-10-01T01:23:08.145Z,0.00
2018-10-01T01:24:08.104Z,0.00
2018-10-01T01:25:08.067Z,0.00
2018-10-01T01:26:08.976Z,0.00
2018-10-01T01:27:08.922Z,0.00
2018-10-01T01:28:08.477Z,0.00
2018-10-01T01:29:08.922Z,0.00
2018-10-01T01:30:08.422Z,0.00
2018-10-01T01:31:08.434Z,0.00
2018-10-01T01:32:07.850Z,0.00
2018-10-01T01:33:07.858Z,0.00
2018-10-01T01:34:07.782Z,0.00
2018-10-01T01:35:07.744Z,0.00
2018-10-01T01:36:08.485Z,0.00
2018-10-01T01:37:07.679Z,0.00
2018-10-01T01:38:07.691Z,0.00
2018-10-01T01:39:08.422Z,0.00
2018-10-01T01:40:07.632Z,0.00
2018-10-01T01:41:07.551Z,0.00
2018-10-01T01:42:07.524Z,0.00
2018-10-01T01:43:07.483Z,0.00
2018-10-01T01:44:07.489Z,0.00
2018-10-01T01:45:07.463Z,0.00
2018-10-01T01:46:07.390Z,0.00
2018-10-01T01:47:07.356Z,0.00
2018-10-01T01:48:07.319Z,0.00
2018-10-01T01:49:07.330Z,0.00
2018-10-01T01:50:07.927Z,0.00
2018-10-01T01:51:07.227Z,0.00
2018-10-01T01:52:07.933Z,0.00
2018-10-01T01:53:07.922Z,0.00
2018-10-01T01:54:07.489Z,0.00
2018-10-01T01:55:08.082Z,0.00
2018-10-01T01:56:07.474Z,0.00
2018-10-01T01:57:07.928Z,0.00
2018-10-01T01:58:07.923Z,0.00
2018-10-01T01:59:06.972Z,0.00
2018-10-01T02:00:06.977Z,0.00
2018-10-01T02:01:07.425Z,0.00
2018-10-01T02:02:06.865Z,0.00
2018-10-01T02:03:07.427Z,0.00
2018-10-01T02:04:06.801Z,0.00
2018-10-01T02:05:07.005Z,0.00
2018-10-01T02:06:06.784Z,0.00
2018-10-01T02:07:07.423Z,0.00
2018-10-01T02:08:07.429Z,0.00
2018-10-01T02:09:07.427Z,0.00
2018-10-01T02:10:06.982Z,0.00
2018-10-01T02:11:06.612Z,0.00
2018-10-01T02:12:06.544Z,0.00
2018-10-01T02:13:06.505Z,0.00
2018-10-01T02:14:07.427Z,0.00
2018-10-01T02:15:06.441Z,0.00
2018-10-01T02:16:06.446Z,0.00
2018-10-01T02:17:06.371Z,0.00
2018-10-01T02:18:06.923Z,0.00
2018-10-01T02:19:06.307Z,0.00
2018-10-01T02:20:06.289Z,0.00
2018-10-01T02:21:06.480Z,0.00
2018-10-01T02:22:06.207Z,0.00
2018-10-01T02:23:06.924Z,0.00
2018-10-01T02:24:06.928Z,0.00
2018-10-01T02:25:06.922Z,0.00
2018-10-01T02:26:06.480Z,0.00
2018-10-01T02:27:06.041Z,0.00
2018-10-01T02:28:06.925Z,0.00
2018-10-01T02:29:06.925Z,0.00
2018-10-01T02:30:05.949Z,0.00
2018-10-01T02:31:05.953Z,0.00
2018-10-01T02:32:05.933Z,0.00
2018-10-01T02:33:06.426Z,0.00
2018-10-01T02:34:06.432Z,0.00
2018-10-01T02:35:05.786Z,0.00
2018-10-01T02:36:05.755Z,0.00
2018-10-01T02:37:05.825Z,0.00
2018-10-01T02:38:07.333Z,0.00
2018-10-01T02:39:05.655Z,0.00
2018-10-01T02:40:06.429Z,0.00
2018-10-01T02:41:06.425Z,0.00
2018-10-01T02:42:05.994Z,0.00
2018-10-01T02:43:05.522Z,0.00
2018-10-01T02:44:05.486Z,0.00
2018-10-01T02:45:06.431Z,0.00
2018-10-01T02:46:05.926Z,0.00
2018-10-01T02:47:05.425Z,0.00
2018-10-01T02:48:05.354Z,0.00
2018-10-01T02:49:05.328Z,0.00
2018-10-01T02:50:05.925Z,0.00
2018-10-01T02:51:05.933Z,0.00
2018-10-01T02:52:05.479Z,0.00
2018-10-01T02:53:05.932Z,0.00
2018-10-01T02:54:05.161Z,0.00
2018-10-01T02:55:05.932Z,0.00
2018-10-01T02:56:05.094Z,0.00
2018-10-01T02:57:05.121Z,0.00
2018-10-01T02:58:05.031Z,0.00
2018-10-01T02:59:05.932Z,0.00
2018-10-01T03:00:05.927Z,0.00
2018-10-01T03:01:05.427Z,0.00
2018-10-01T03:02:04.955Z,0.00
2018-10-01T03:03:04.865Z,0.00
2018-10-01T03:04:05.430Z,0.00
2018-10-01T03:05:05.429Z,0.00
2018-10-01T03:06:04.767Z,0.00
2018-10-01T03:07:04.781Z,0.00
2018-10-01T03:08:05.427Z,0.00
2018-10-01T03:09:04.669Z,0.00
2018-10-01T03:10:04.637Z,0.00
2018-10-01T03:11:05.429Z,0.00
2018-10-01T03:12:04.678Z,0.00
2018-10-01T03:13:04.536Z,0.00
2018-10-01T03:14:05.427Z,0.00
2018-10-01T03:15:05.447Z,0.00
2018-10-01T03:16:05.434Z,0.00
2018-10-01T03:17:04.452Z,0.00
2018-10-01T03:18:04.373Z,0.00
2018-10-01T03:19:04.929Z,0.00
2018-10-01T03:20:04.361Z,0.00
2018-10-01T03:21:04.280Z,0.00
2018-10-01T03:22:04.938Z,0.00
2018-10-01T03:23:04.929Z,0.00
2018-10-01T03:24:04.928Z,0.00
2018-10-01T03:25:04.485Z,0.00
2018-10-01T03:26:04.112Z,0.00
2018-10-01T03:27:04.087Z,0.00
2018-10-01T03:28:04.938Z,0.00
2018-10-01T03:29:04.060Z,0.00
2018-10-01T03:30:04.934Z,0.00
2018-10-01T03:31:03.991Z,0.00
2018-10-01T03:32:03.958Z,0.00
2018-10-01T03:33:04.439Z,0.00
2018-10-01T03:34:03.854Z,0.00
2018-10-01T03:35:04.338Z,0.00
2018-10-01T03:36:03.782Z,0.00
2018-10-01T03:37:03.789Z,0.00
2018-10-01T03:38:03.760Z,0.00
2018-10-01T03:39:04.441Z,0.00
2018-10-01T03:40:03.696Z,0.00
2018-10-01T03:41:04.431Z,0.00
2018-10-01T03:42:03.581Z,0.00
2018-10-01T03:43:03.984Z,0.00
2018-10-01T03:44:04.434Z,0.00
2018-10-01T03:45:04.444Z,0.00
2018-10-01T03:46:04.455Z,0.00
2018-10-01T03:47:03.416Z,0.00
2018-10-01T03:48:03.427Z,0.00
2018-10-01T03:49:03.935Z,0.00
2018-10-01T03:50:03.375Z,0.00
2018-10-01T03:51:03.497Z,0.00
2018-10-01T03:52:03.936Z,0.00
2018-10-01T03:53:03.491Z,0.00
2018-10-01T03:54:03.191Z,0.00
2018-10-01T03:55:03.934Z,0.00
2018-10-01T03:56:03.486Z,0.00
2018-10-01T03:57:03.087Z,0.00
2018-10-01T03:58:03.051Z,0.00
2018-10-01T03:59:03.489Z,0.00
2018-10-01T04:00:03.932Z,0.00
2018-10-01T04:01:03.959Z,0.00
2018-10-01T04:02:02.922Z,0.00
2018-10-01T04:03:03.019Z,0.00
2018-10-01T04:04:03.435Z,0.00
2018-10-01T04:05:02.833Z,0.00
2018-10-01T04:06:02.792Z,0.00
2018-10-01T04:07:02.752Z,0.00
2018-10-01T04:08:02.768Z,0.00
2018-10-01T04:09:02.757Z,0.00
2018-10-01T04:10:02.656Z,0.00
2018-10-01T04:11:02.667Z,0.00
2018-10-01T04:12:03.438Z,0.00
2018-10-01T04:13:02.553Z,0.00
2018-10-01T04:14:03.434Z,0.00
2018-10-01T04:15:02.991Z,0.00
2018-10-01T04:16:02.457Z,0.00
2018-10-01T04:17:02.464Z,0.00
2018-10-01T04:18:02.936Z,0.00
2018-10-01T04:19:02.356Z,0.00
2018-10-01T04:20:02.489Z,0.00
2018-10-01T04:21:02.933Z,0.00
2018-10-01T04:22:02.315Z,0.00
2018-10-01T04:23:02.237Z,0.00
2018-10-01T04:24:02.189Z,0.00
2018-10-01T04:25:02.158Z,0.00
2018-10-01T04:26:02.168Z,0.00
2018-10-01T04:27:02.086Z,0.00
2018-10-01T04:28:02.057Z,0.00
2018-10-01T04:29:02.025Z,0.00
2018-10-01T04:30:01.989Z,0.00
2018-10-01T04:31:02.014Z,0.00
2018-10-01T04:32:01.980Z,0.00
2018-10-01T04:33:01.937Z,0.00
2018-10-01T04:34:02.436Z,4.00
2018-10-01T04:35:01.829Z,0.00
2018-10-01T04:36:01.876Z,0.00
2018-10-01T04:37:01.754Z,4.00
2018-10-01T04:38:01.768Z,0.00
2018-10-01T04:39:01.692Z,4.00
2018-10-01T04:40:01.653Z,4.00
2018-10-01T04:41:01.672Z,4.00
2018-10-01T04:42:02.436Z,4.00
2018-10-01T04:43:02.435Z,8.00
2018-10-01T04:44:01.548Z,8.00
2018-10-01T04:45:01.535Z,8.00
2018-10-01T04:46:01.465Z,16.00
2018-10-01T04:47:01.424Z,16.00
2018-10-01T04:48:01.395Z,20.00
2018-10-01T04:49:01.398Z,24.00
2018-10-01T04:50:01.319Z,24.00
2018-10-01T04:51:01.305Z,32.00
2018-10-01T04:52:01.261Z,36.00
2018-10-01T04:53:01.239Z,44.00
2018-10-01T04:54:01.229Z,48.00
2018-10-01T04:55:01.493Z,60.00
2018-10-01T04:56:01.120Z,68.00
2018-10-01T04:57:01.087Z,76.00
2018-10-01T04:58:01.129Z,88.00
2018-10-01T04:59:01.020Z,100.00
2018-10-01T05:00:00.984Z,108.00
2018-10-01T05:01:01.938Z,124.00
2018-10-01T05:02:00.923Z,140.00
2018-10-01T05:03:00.933Z,152.00
2018-10-01T05:04:00.899Z,172.00
2018-10-01T05:05:00.872Z,188.00
2018-10-01T05:06:00.815Z,208.00
2018-10-01T05:07:00.752Z,224.00
2018-10-01T05:08:00.723Z,248.00
2018-10-01T05:09:00.684Z,268.00
2018-10-01T05:10:00.696Z,292.00
2018-10-01T05:11:00.616Z,320.00
2018-10-01T05:12:00.584Z,348.00
2018-10-01T05:13:00.593Z,372.00
2018-10-01T05:14:00.522Z,404.00
2018-10-01T05:15:00.482Z,432.00
2018-10-01T05:16:00.517Z,468.00
2018-10-01T05:17:00.413Z,500.00
2018-10-01T05:18:00.424Z,536.00
2018-10-01T05:19:00.347Z,568.00
2018-10-01T05:20:00.312Z,600.00
2018-10-01T05:21:00.497Z,632.00
2018-10-01T05:22:00.247Z,664.00
2018-10-01T05:23:00.214Z,692.00
2018-10-01T05:24:00.938Z,728.00
2018-10-01T05:25:00.147Z,764.00
2018-10-01T05:26:00.158Z,800.00
2018-10-01T05:27:00.106Z,840.00
2018-10-01T05:28:00.946Z,884.00
2018-10-01T05:29:00.494Z,928.00
2018-10-01T05:29:59.978Z,972.00
2018-10-01T05:30:59.947Z,1008.00
2018-10-01T05:31:59.964Z,1032.00
2018-10-01T05:33:00.439Z,1064.00
2018-10-01T05:33:59.849Z,1084.00
2018-10-01T05:34:59.833Z,1108.00
2018-10-01T05:36:00.441Z,1120.00
2018-10-01T05:36:59.787Z,1140.00
2018-10-01T05:37:59.772Z,1168.00
2018-10-01T05:38:59.719Z,1212.00
2018-10-01T05:39:59.643Z,1260.00
2018-10-01T05:40:59.616Z,1380.00
2018-10-01T05:41:59.630Z,1540.00
2018-10-01T05:42:59.546Z,1652.00
2018-10-01T05:43:59.513Z,1724.00
2018-10-01T05:45:00.470Z,1784.00
2018-10-01T05:45:59.442Z,1840.00
2018-10-01T05:46:59.454Z,1888.00
2018-10-01T05:47:59.423Z,1888.00
2018-10-01T05:48:59.413Z,1936.00
2018-10-01T05:49:59.316Z,2000.00
2018-10-01T05:50:59.278Z,2016.00
2018-10-01T05:51:59.240Z,2020.00
2018-10-01T05:52:59.249Z,1916.00
2018-10-01T05:53:59.208Z,1944.00
2018-10-01T05:54:59.253Z,1924.00
2018-10-01T05:55:59.131Z,1916.00
2018-10-01T05:56:59.074Z,1908.00
2018-10-01T05:57:59.090Z,1924.00
2018-10-01T05:58:59.053Z,1968.00
2018-10-01T05:59:59.024Z,2064.00
2018-10-01T06:00:58.943Z,2180.00
2018-10-01T06:01:58.909Z,2292.00
2018-10-01T06:02:58.875Z,2404.00
2018-10-01T06:03:58.992Z,2504.00
2018-10-01T06:04:58.817Z,2592.00
2018-10-01T06:05:58.776Z,2616.00
2018-10-01T06:06:58.745Z,2568.00
2018-10-01T06:07:58.996Z,2520.00
2018-10-01T06:08:59.444Z,2496.00
2018-10-01T06:09:58.661Z,2484.00
2018-10-01T06:10:58.615Z,2480.00
2018-10-01T06:11:58.634Z,2480.00
2018-10-01T06:12:58.581Z,2460.00
2018-10-01T06:13:58.556Z,2436.00
2018-10-01T06:14:58.482Z,2396.00
2018-10-01T06:15:58.445Z,2364.00
2018-10-01T06:16:58.432Z,2360.00
2018-10-01T06:17:58.385Z,2452.00
2018-10-01T06:18:58.437Z,2532.00
2018-10-01T06:19:58.315Z,2516.00
2018-10-01T06:20:58.297Z,2460.00
2018-10-01T06:21:58.245Z,2424.00
2018-10-01T06:22:58.945Z,2432.00
2018-10-01T06:23:58.241Z,2464.00
2018-10-01T06:24:58.148Z,2520.00
2018-10-01T06:25:58.114Z,2572.00
2018-10-01T06:26:58.947Z,2612.00
2018-10-01T06:27:58.050Z,2672.00
2018-10-01T06:28:58.058Z,2700.00
2018-10-01T06:29:57.982Z,2652.00
2018-10-01T06:30:57.952Z,2612.00
2018-10-01T06:31:57.968Z,2644.00
2018-10-01T06:32:58.444Z,2720.00
2018-10-01T06:33:57.893Z,2740.00
2018-10-01T06:34:57.937Z,2776.00
2018-10-01T06:35:57.835Z,2860.00
2018-10-01T06:36:57.751Z,2892.00
2018-10-01T06:37:57.744Z,2976.00
2018-10-01T06:38:57.691Z,3108.00
2018-10-01T06:39:57.658Z,3348.00
2018-10-01T06:40:57.679Z,3512.00
2018-10-01T06:41:57.645Z,3524.00
2018-10-01T06:42:57.558Z,3520.00
2018-10-01T06:43:57.536Z,3632.00
2018-10-01T06:44:57.492Z,3888.00
2018-10-01T06:45:57.625Z,4244.00
2018-10-01T06:46:57.427Z,4620.00
2018-10-01T06:47:57.392Z,4772.00
2018-10-01T06:48:57.366Z,4940.00
2018-10-01T06:49:57.328Z,5148.00
2018-10-01T06:50:57.587Z,5092.00
2018-10-01T06:51:57.268Z,4924.00
2018-10-01T06:52:57.234Z,4892.00
2018-10-01T06:53:57.209Z,4784.00
2018-10-01T06:54:57.167Z,4576.00
2018-10-01T06:55:57.177Z,4692.00
2018-10-01T06:56:57.501Z,4852.00
2018-10-01T06:57:57.987Z,4840.00
2018-10-01T06:58:57.036Z,4792.00
2018-10-01T06:59:57.060Z,4748.00
2018-10-01T07:00:56.976Z,4756.00
2018-10-01T07:01:56.946Z,4676.00
2018-10-01T07:02:56.914Z,4484.00
2018-10-01T07:03:56.879Z,4420.00
2018-10-01T07:04:56.885Z,4520.00
2018-10-01T07:05:56.925Z,4460.00
2018-10-01T07:06:56.782Z,4272.00
2018-10-01T07:07:56.752Z,4088.00
2018-10-01T07:08:56.720Z,3944.00
2018-10-01T07:09:56.737Z,3744.00
2018-10-01T07:10:56.708Z,3640.00
2018-10-01T07:11:57.450Z,3572.00
2018-10-01T07:12:56.600Z,3516.00
2018-10-01T07:13:57.451Z,3420.00
2018-10-01T07:14:56.535Z,3312.00
2018-10-01T07:15:57.504Z,3412.00
2018-10-01T07:16:56.474Z,3412.00
2018-10-01T07:17:56.478Z,3288.00
2018-10-01T07:18:56.402Z,3208.00
2018-10-01T07:19:56.371Z,3168.00
2018-10-01T07:20:56.397Z,3188.00
2018-10-01T07:21:56.310Z,3272.00
2018-10-01T07:22:56.357Z,3320.00
2018-10-01T07:23:56.242Z,3284.00
2018-10-01T07:24:56.222Z,3192.00
2018-10-01T07:25:56.255Z,3120.00
2018-10-01T07:26:56.151Z,3100.00
2018-10-01T07:27:56.118Z,3124.00
2018-10-01T07:28:56.093Z,3140.00
2018-10-01T07:29:56.508Z,3152.00
2018-10-01T07:30:56.951Z,3176.00
2018-10-01T07:31:55.991Z,3232.00
2018-10-01T07:32:56.958Z,3276.00
2018-10-01T07:33:55.931Z,3300.00
2018-10-01T07:34:55.953Z,3340.00
2018-10-01T07:35:55.881Z,3388.00
2018-10-01T07:36:55.837Z,3468.00
2018-10-01T07:37:55.810Z,3592.00
2018-10-01T07:38:55.839Z,3704.00
2018-10-01T07:39:55.800Z,3796.00
2018-10-01T07:40:55.711Z,3848.00
2018-10-01T07:41:55.690Z,3852.00
2018-10-01T07:42:55.653Z,3860.00
2018-10-01T07:43:55.621Z,3888.00
2018-10-01T07:44:55.674Z,3944.00
2018-10-01T07:45:55.558Z,4080.00
2018-10-01T07:46:55.531Z,4248.00
2018-10-01T07:47:55.500Z,4480.00
2018-10-01T07:48:55.464Z,4848.00
2018-10-01T07:49:55.479Z,5384.00
2018-10-01T07:50:55.490Z,5752.00
2018-10-01T07:51:55.420Z,5836.00
2018-10-01T07:52:55.394Z,5868.00
2018-10-01T07:53:55.315Z,5956.00
2018-10-01T07:54:55.279Z,6180.00
2018-10-01T07:55:55.251Z,6580.00
2018-10-01T07:56:56.488Z,7020.00
2018-10-01T07:57:55.952Z,7340.00
2018-10-01T07:58:55.525Z,7356.00
2018-10-01T07:59:55.393Z,7340.00
2018-10-01T08:00:55.955Z,7356.00
2018-10-01T08:01:55.976Z,7364.00
2018-10-01T08:02:55.952Z,7336.00
2018-10-01T08:03:55.508Z,7232.00
2018-10-01T08:04:54.981Z,7252.00
2018-10-01T08:05:54.952Z,7428.00
2018-10-01T08:06:54.921Z,7868.00
2018-10-01T08:07:55.024Z,8432.00
2018-10-01T08:08:54.868Z,8892.00
2018-10-01T08:09:54.832Z,9372.00
2018-10-01T08:10:54.802Z,10432.00
2018-10-01T08:11:54.765Z,11088.00
2018-10-01T08:12:54.779Z,11272.00
2018-10-01T08:13:54.712Z,11304.00
2018-10-01T08:14:54.684Z,10960.00
2018-10-01T08:15:54.711Z,10624.00
2018-10-01T08:16:54.638Z,10364.00
2018-10-01T08:17:54.640Z,10184.00
2018-10-01T08:18:54.564Z,9960.00
2018-10-01T08:19:54.596Z,9780.00
2018-10-01T08:20:54.501Z,9660.00
2018-10-01T08:21:54.477Z,9256.00
2018-10-01T08:22:54.492Z,8904.00
2018-10-01T08:23:54.421Z,8892.00
2018-10-01T08:24:54.386Z,9060.00
2018-10-01T08:25:54.367Z,9360.00
2018-10-01T08:26:54.375Z,9656.00
2018-10-01T08:27:54.347Z,9688.00
2018-10-01T08:28:54.279Z,9440.00
2018-10-01T08:29:54.405Z,9204.00
2018-10-01T08:30:54.220Z,8864.00
2018-10-01T08:31:54.192Z,8568.00
2018-10-01T08:32:54.195Z,8452.00
2018-10-01T08:33:54.140Z,8532.00
2018-10-01T08:34:55.462Z,8692.00
2018-10-01T08:35:54.079Z,8804.00
2018-10-01T08:36:54.053Z,8896.00
2018-10-01T08:37:54.029Z,8844.00
2018-10-01T08:38:53.997Z,8648.00
2018-10-01T08:39:54.021Z,8380.00
2018-10-01T08:40:53.943Z,8084.00
2018-10-01T08:41:53.914Z,7932.00
2018-10-01T08:42:53.943Z,7828.00
2018-10-01T08:43:53.860Z,7708.00
2018-10-01T08:44:53.867Z,7612.00
2018-10-01T08:45:53.846Z,7412.00
2018-10-01T08:46:53.773Z,7128.00
2018-10-01T08:47:53.747Z,7016.00
2018-10-01T08:48:53.717Z,7092.00
2018-10-01T08:49:53.707Z,7172.00
2018-10-01T08:50:53.707Z,7192.00
2018-10-01T08:51:53.705Z,7296.00
2018-10-01T08:52:53.605Z,7404.00
2018-10-01T08:53:53.590Z,7500.00
2018-10-01T08:54:53.557Z,7712.00
2018-10-01T08:55:53.522Z,7904.00
2018-10-01T08:56:53.555Z,8028.00
2018-10-01T08:57:53.465Z,8136.00
2018-10-01T08:58:53.968Z,8256.00
2018-10-01T08:59:53.411Z,8460.00
2018-10-01T09:00:53.387Z,8012.00
2018-10-01T09:01:53.409Z,7072.00
2018-10-01T09:02:53.327Z,6316.00
2018-10-01T09:03:53.300Z,5900.00
2018-10-01T09:04:53.270Z,5660.00
2018-10-01T09:05:53.247Z,5524.00
2018-10-01T09:06:53.343Z,5396.00
2018-10-01T09:07:53.233Z,5484.00
2018-10-01T09:08:53.160Z,5636.00
2018-10-01T09:09:53.176Z,5732.00
2018-10-01T09:10:53.102Z,5796.00
2018-10-01T09:11:53.076Z,6056.00
2018-10-01T09:12:53.061Z,6292.00
2018-10-01T09:13:53.063Z,6380.00
2018-10-01T09:14:53.088Z,6396.00
2018-10-01T09:15:52.964Z,6416.00
2018-10-01T09:16:52.934Z,6472.00
2018-10-01T09:17:52.902Z,6612.00
2018-10-01T09:18:52.891Z,6816.00
2018-10-01T09:19:52.889Z,7088.00
2018-10-01T09:20:52.853Z,7232.00
2018-10-01T09:21:52.794Z,7312.00
2018-10-01T09:22:52.811Z,7420.00
2018-10-01T09:23:52.735Z,7560.00
2018-10-01T09:24:52.708Z,7536.00
2018-10-01T09:25:52.680Z,7524.00
2018-10-01T09:26:52.716Z,7708.00
2018-10-01T09:27:52.624Z,8036.00
2018-10-01T09:28:52.603Z,8396.00
2018-10-01T09:29:52.579Z,8944.00
2018-10-01T09:30:52.567Z,9544.00
2018-10-01T09:31:52.550Z,10064.00
2018-10-01T09:32:52.486Z,10508.00
2018-10-01T09:33:52.459Z,10508.00
2018-10-01T09:34:52.505Z,10240.00
2018-10-01T09:35:52.401Z,9824.00
2018-10-01T09:36:52.424Z,9644.00
2018-10-01T09:37:52.363Z,9324.00
2018-10-01T09:38:52.323Z,9088.00
2018-10-01T09:39:52.309Z,9124.00
2018-10-01T09:40:52.308Z,9312.00
2018-10-01T09:41:52.240Z,9344.00
2018-10-01T09:42:52.258Z,8836.00
2018-10-01T09:43:52.185Z,8024.00
2018-10-01T09:44:52.157Z,7280.00
2018-10-01T09:45:52.134Z,6648.00
2018-10-01T09:46:52.105Z,6272.00
2018-10-01T09:47:52.131Z,6252.00
2018-10-01T09:48:52.051Z,6344.00
2018-10-01T09:49:52.163Z,6452.00
2018-10-01T09:50:52.040Z,6716.00
2018-10-01T09:51:51.978Z,7124.00
2018-10-01T09:52:51.981Z,7784.00
2018-10-01T09:53:52.058Z,8416.00
2018-10-01T09:54:51.888Z,8916.00
2018-10-01T09:55:51.869Z,9160.00
2018-10-01T09:56:51.880Z,9188.00
2018-10-01T09:57:51.852Z,9192.00
2018-10-01T09:58:51.783Z,9356.00
2018-10-01T09:59:51.761Z,9844.00
2018-10-01T10:00:52.479Z,10420.00
2018-10-01T10:01:51.775Z,11220.00
2018-10-01T10:02:52.505Z,11932.00
2018-10-01T10:03:51.661Z,12204.00
2018-10-01T10:04:51.739Z,12124.00
2018-10-01T10:05:51.605Z,12184.00
2018-10-01T10:06:51.569Z,12508.00
2018-10-01T10:07:51.546Z,12644.00
2018-10-01T10:08:51.516Z,11820.00
2018-10-01T10:09:51.564Z,10828.00
2018-10-01T10:10:51.465Z,9944.00
2018-10-01T10:11:51.436Z,9176.00
2018-10-01T10:12:51.422Z,8780.00
2018-10-01T10:13:51.385Z,8740.00
2018-10-01T10:14:51.401Z,9200.00
2018-10-01T10:15:51.336Z,9716.00
2018-10-01T10:16:51.450Z,10156.00
2018-10-01T10:17:51.336Z,10352.00
2018-10-01T10:18:51.255Z,10512.00
2018-10-01T10:19:51.535Z,10756.00
2018-10-01T10:20:51.208Z,11220.00
2018-10-01T10:21:51.180Z,11384.00
2018-10-01T10:22:51.151Z,10948.00
2018-10-01T10:23:51.133Z,10368.00
2018-10-01T10:24:51.144Z,9976.00
2018-10-01T10:25:51.074Z,10296.00
2018-10-01T10:26:51.069Z,10860.00
2018-10-01T10:27:51.023Z,11040.00
2018-10-01T10:28:50.997Z,10684.00
2018-10-01T10:29:51.059Z,10056.00
2018-10-01T10:30:50.992Z,9332.00
2018-10-01T10:31:50.919Z,8524.00
2018-10-01T10:32:50.897Z,8596.00
2018-10-01T10:33:50.869Z,8788.00
2018-10-01T10:34:50.841Z,8872.00
2018-10-01T10:35:50.859Z,8680.00
2018-10-01T10:36:50.792Z,8964.00
2018-10-01T10:37:50.772Z,9796.00
2018-10-01T10:38:50.741Z,10428.00
2018-10-01T10:39:50.769Z,10568.00
2018-10-01T10:40:50.733Z,10292.00
2018-10-01T10:41:50.718Z,10016.00
2018-10-01T10:42:50.636Z,9456.00
2018-10-01T10:43:50.612Z,8708.00
2018-10-01T10:44:50.587Z,7976.00
2018-10-01T10:45:50.613Z,7288.00
2018-10-01T10:46:50.531Z,6668.00
2018-10-01T10:47:50.504Z,6120.00
2018-10-01T10:48:50.478Z,5580.00
2018-10-01T10:49:50.456Z,5024.00
2018-10-01T10:50:50.474Z,4664.00
2018-10-01T10:51:50.448Z,4856.00
2018-10-01T10:52:50.375Z,5052.00
2018-10-01T10:53:50.353Z,5320.00
2018-10-01T10:54:50.322Z,5612.00
2018-10-01T10:55:50.295Z,5696.00
2018-10-01T10:56:50.377Z,6680.00
2018-10-01T10:57:50.243Z,7912.00
2018-10-01T10:58:50.218Z,8976.00
2018-10-01T10:59:50.197Z,9868.00
2018-10-01T11:00:50.167Z,10232.00
2018-10-01T11:01:50.198Z,10660.00
2018-10-01T11:02:50.156Z,11608.00
2018-10-01T11:03:50.085Z,11960.00
2018-10-01T11:04:50.060Z,11596.00
2018-10-01T11:05:50.031Z,10928.00
2018-10-01T11:06:50.003Z,11340.00
2018-10-01T11:07:50.022Z,12048.00
2018-10-01T11:08:49.951Z,13272.00
2018-10-01T11:09:49.930Z,13620.00
2018-10-01T11:10:49.900Z,13108.00
2018-10-01T11:11:49.925Z,11808.00
2018-10-01T11:12:49.892Z,10836.00
2018-10-01T11:13:49.854Z,10664.00
2018-10-01T11:14:49.899Z,9740.00
2018-10-01T11:15:49.766Z,10492.00
2018-10-01T11:16:49.796Z,11900.00
2018-10-01T11:17:49.793Z,11996.00
2018-10-01T11:18:49.842Z,11712.00
2018-10-01T11:19:49.778Z,11668.00
2018-10-01T11:20:49.704Z,11128.00
2018-10-01T11:21:49.681Z,10404.00
2018-10-01T11:22:49.645Z,9600.00
2018-10-01T11:23:49.567Z,9656.00
2018-10-01T11:24:49.529Z,10132.00
2018-10-01T11:25:49.507Z,10568.00
2018-10-01T11:26:49.543Z,11844.00
2018-10-01T11:27:49.580Z,13556.00
2018-10-01T11:28:49.566Z,14496.00
2018-10-01T11:29:49.400Z,15080.00
2018-10-01T11:30:49.375Z,15392.00
2018-10-01T11:31:49.439Z,15548.00
2018-10-01T11:32:49.324Z,15696.00
2018-10-01T11:33:49.347Z,15796.00
2018-10-01T11:34:49.403Z,15828.00
2018-10-01T11:35:49.246Z,15700.00
2018-10-01T11:36:49.222Z,14880.00
2018-10-01T11:37:49.238Z,13456.00
2018-10-01T11:38:49.215Z,11556.00
2018-10-01T11:39:49.191Z,11292.00
2018-10-01T11:40:49.122Z,11944.00
2018-10-01T11:41:49.091Z,11628.00
2018-10-01T11:42:49.078Z,12472.00
2018-10-01T11:43:49.085Z,14524.00
2018-10-01T11:44:49.026Z,14496.00
2018-10-01T11:45:49.021Z,13868.00
2018-10-01T11:46:48.965Z,12052.00
2018-10-01T11:47:48.942Z,9992.00
2018-10-01T11:48:48.957Z,8816.00
2018-10-01T11:49:48.894Z,8080.00
2018-10-01T11:50:48.867Z,7472.00
2018-10-01T11:51:48.842Z,8144.00
2018-10-01T11:52:48.820Z,8848.00
2018-10-01T11:53:48.838Z,9668.00
2018-10-01T11:54:48.761Z,9212.00
2018-10-01T11:55:48.752Z,8700.00
2018-10-01T11:56:48.718Z,8816.00
2018-10-01T11:57:48.804Z,8872.00
2018-10-01T11:58:48.703Z,9008.00
2018-10-01T11:59:48.635Z,9336.00
2018-10-01T12:00:48.655Z,10104.00
2018-10-01T12:01:48.585Z,10984.00
2018-10-01T12:02:48.581Z,11528.00
2018-10-01T12:03:48.576Z,11492.00
2018-10-01T12:04:48.551Z,10888.00
2018-10-01T12:05:48.479Z,10424.00
2018-10-01T12:06:48.496Z,10292.00
2018-10-01T12:07:48.426Z,10212.00
2018-10-01T12:08:48.463Z,10208.00
2018-10-01T12:09:48.523Z,10012.00
2018-10-01T12:10:48.349Z,9868.00
2018-10-01T12:11:48.328Z,9652.00
2018-10-01T12:12:48.318Z,9276.00
2018-10-01T12:13:48.318Z,8816.00
2018-10-01T12:14:48.244Z,8636.00
2018-10-01T12:15:48.379Z,8912.00
2018-10-01T12:16:48.198Z,9808.00
2018-10-01T12:17:48.168Z,10940.00
2018-10-01T12:18:48.141Z,11776.00
2018-10-01T12:19:48.167Z,12440.00
2018-10-01T12:20:48.088Z,12580.00
2018-10-01T12:21:48.233Z,12712.00
2018-10-01T12:22:48.035Z,12380.00
2018-10-01T12:23:48.010Z,11992.00
2018-10-01T12:24:48.029Z,11484.00
2018-10-01T12:25:47.958Z,10904.00
2018-10-01T12:26:48.024Z,10616.00
2018-10-01T12:27:47.911Z,10204.00
2018-10-01T12:28:47.885Z,10428.00
2018-10-01T12:29:47.902Z,11208.00